Barhom II — 5IM534 — position and weather

sailwx.info

Track history (hours):
 
Tides and Currents Weather Stations Pressure Air Temp Water Temp Dewpoint Dewpoint Depression Visibility Wind Speed Wind Dir Waves Ship Positions

Barhom II

Last reported at 2017-Feb-22 08:19 UTC. Time now 2017-Feb-22 13:08 UTC.
Position N 43°24' E 003°42'.

Length 83 m.

Type: Cargo ship. MMSI: 677043400.

Date/timePositionNaut miles runAvg speedWind from/ knotsBaromVisibWave heightAir tempDewpointWater temp
2017-Feb-22 08:19N 43°24' E 003°42'16 7.7
2017-Feb-22 06:17N 43°09' E 003°49'107 9.9
2017-Feb-21 19:33N 41°23' E 003°43'1010.2
2017-Feb-21 18:33N 41°13' E 003°40'71 9.7
2017-Feb-21 11:11N 40°01' E 003°38'6 9.4
2017-Feb-21 10:33N 39°55' E 003°37'10 9.5
2017-Feb-21 09:27N 39°45' E 003°41'9 9.9
2017-Feb-21 08:33N 39°36' E 003°40'1210.8
2017-Feb-21 07:24N 39°24' E 003°36'910.9
2017-Feb-21 06:33N 39°15' E 003°36'1110.7
2017-Feb-21 05:33N 39°04' E 003°35'1110.6
2017-Feb-21 04:33N 38°54' E 003°32'1110.8
2017-Feb-21 03:33N 38°43' E 003°30'  
2017-Feb-17 20:03N 38°32' E 003°30'5 9.9
2017-Feb-17 19:33N 38°37' E 003°31'10 9.6
2017-Feb-17 18:33N 38°47' E 003°33'10 9.5
2017-Feb-17 17:33N 38°56' E 003°34'10 9.7
2017-Feb-17 16:32N 39°06' E 003°36'30 9.8
2017-Feb-17 13:30N 39°35' E 003°42'10 9.7
2017-Feb-17 12:28N 39°45' E 003°42'910.0
2017-Feb-17 11:32N 39°55' E 003°42'  
Track history (hours):
 
Tides and Currents Weather Stations Pressure Air Temp Water Temp Dewpoint Dewpoint Depression Visibility Wind Speed Wind Dir Waves Ship Positions

Barhom II

Last reported at 2017-Feb-22 08:19 UTC. Time now 2017-Feb-22 13:08 UTC.
Position N 43°24' E 003°42'.

Length 83 m.

Type: Cargo ship. MMSI: 677043400.

Date/timePositionNaut miles runAvg speedWind from/ knotsBaromVisibWave heightAir tempDewpointWater temp
2017-Feb-22 08:19N 43°24' E 003°42'16 7.7
2017-Feb-22 06:17N 43°09' E 003°49'107 9.9
2017-Feb-21 19:33N 41°23' E 003°43'1010.2
2017-Feb-21 18:33N 41°13' E 003°40'71 9.7
2017-Feb-21 11:11N 40°01' E 003°38'6 9.4
2017-Feb-21 10:33N 39°55' E 003°37'10 9.5
2017-Feb-21 09:27N 39°45' E 003°41'9 9.9
2017-Feb-21 08:33N 39°36' E 003°40'1210.8
2017-Feb-21 07:24N 39°24' E 003°36'910.9
2017-Feb-21 06:33N 39°15' E 003°36'1110.7
2017-Feb-21 05:33N 39°04' E 003°35'1110.6
2017-Feb-21 04:33N 38°54' E 003°32'1110.8
2017-Feb-21 03:33N 38°43' E 003°30'  
2017-Feb-17 20:03N 38°32' E 003°30'5 9.9
2017-Feb-17 19:33N 38°37' E 003°31'10 9.6
2017-Feb-17 18:33N 38°47' E 003°33'10 9.5
2017-Feb-17 17:33N 38°56' E 003°34'10 9.7
2017-Feb-17 16:32N 39°06' E 003°36'30 9.8
2017-Feb-17 13:30N 39°35' E 003°42'10 9.7
2017-Feb-17 12:28N 39°45' E 003°42'910.0
2017-Feb-17 11:32N 39°55' E 003°42'  

Dump ship's entire track history